sensor_id;sensor_type;location;lat;lon;timestamp;pressure;altitude;pressure_sealevel;temperature;humidity
33506;BME280;19843;51.040;13.782;2022-10-10T00:00:03;152320.84;;;9.46;100.00
33506;BME280;19843;51.040;13.782;2022-10-10T00:02:31;152336.25;;;9.52;100.00
33506;BME280;19843;51.040;13.782;2022-10-10T00:04:58;152347.88;;;9.57;100.00
33506;BME280;19843;51.040;13.782;2022-10-10T00:07:26;152360.72;;;9.62;100.00
33506;BME280;19843;51.040;13.782;2022-10-10T00:09:53;152306.69;;;9.41;100.00
33506;BME280;19843;51.040;13.782;2022-10-10T00:12:22;152322.09;;;9.47;100.00
33506;BME280;19843;51.040;13.782;2022-10-10T00:14:50;152346.56;;;9.56;100.00
33506;BME280;19843;51.040;13.782;2022-10-10T00:17:17;152347.88;;;9.57;100.00
33506;BME280;19843;51.040;13.782;2022-10-10T00:19:45;152344.00;;;9.55;100.00
33506;BME280;19843;51.040;13.782;2022-10-10T00:22:12;152358.16;;;9.61;100.00
33506;BME280;19843;51.040;13.782;2022-10-10T00:24:40;152325.97;;;9.48;100.00
33506;BME280;19843;51.040;13.782;2022-10-10T00:27:07;152340.13;;;9.54;100.00
33506;BME280;19843;51.040;13.782;2022-10-10T00:29:36;152373.59;;;9.67;100.00
33506;BME280;19843;51.040;13.782;2022-10-10T00:32:03;152380.00;;;9.69;100.00
33506;BME280;19843;51.040;13.782;2022-10-10T00:34:31;152371.00;;;9.66;100.00
33506;BME280;19843;51.040;13.782;2022-10-10T00:36:58;152358.16;;;9.61;100.00
33506;BME280;19843;51.040;13.782;2022-10-10T00:39:26;152363.25;;;9.63;100.00
33506;BME280;19843;51.040;13.782;2022-10-10T00:41:53;152327.25;;;9.49;100.00
33506;BME280;19843;51.040;13.782;2022-10-10T00:44:21;152377.41;;;9.68;100.00
33506;BME280;19843;51.040;13.782;2022-10-10T00:46:50;152345.28;;;9.56;100.00
33506;BME280;19843;51.040;13.782;2022-10-10T00:49:20;152363.25;;;9.63;100.00
33506;BME280;19843;51.040;13.782;2022-10-10T00:51:52;152380.00;;;9.69;100.00
33506;BME280;19843;51.040;13.782;2022-10-10T00:54:23;152376.13;;;9.68;100.00
33506;BME280;19843;51.040;13.782;2022-10-10T00:56:53;152342.69;;;9.55;100.00
33506;BME280;19843;51.040;13.782;2022-10-10T00:59:21;152352.97;;;9.59;100.00
33506;BME280;19843;51.040;13.782;2022-10-10T01:01:51;152340.13;;;9.54;100.00
33506;BME280;19843;51.040;13.782;2022-10-10T01:04:30;152337.53;;;9.53;100.00
33506;BME280;19843;51.040;13.782;2022-10-10T01:06:58;152351.69;;;9.58;100.00
33506;BME280;19843;51.040;13.782;2022-10-10T01:09:26;152347.88;;;9.57;100.00
33506;BME280;19843;51.040;13.782;2022-10-10T01:12:00;152329.84;;;9.50;100.00
33506;BME280;19843;51.040;13.782;2022-10-10T01:14:37;152302.81;;;9.39;100.00
33506;BME280;19843;51.040;13.782;2022-10-10T01:17:13;152243.63;;;9.16;100.00
33506;BME280;19843;51.040;13.782;2022-10-10T01:20:08;152289.94;;;9.34;100.00
33506;BME280;19843;51.040;13.782;2022-10-10T01:22:55;152291.25;;;9.35;100.00
33506;BME280;19843;51.040;13.782;2022-10-10T01:25:30;152329.84;;;9.50;100.00
33506;BME280;19843;51.040;13.782;2022-10-10T01:28:00;152300.22;;;9.38;100.00
33506;BME280;19843;51.040;13.782;2022-10-10T01:30:32;152309.22;;;9.42;100.00
33506;BME280;19843;51.040;13.782;2022-10-10T01:33:05;152282.19;;;9.31;100.00
33506;BME280;19843;51.040;13.782;2022-10-10T01:35:45;152247.50;;;9.17;100.00
33506;BME280;19843;51.040;13.782;2022-10-10T01:38:23;152257.78;;;9.21;100.00
33506;BME280;19843;51.040;13.782;2022-10-10T01:40:55;152229.47;;;9.10;100.00
33506;BME280;19843;51.040;13.782;2022-10-10T01:43:28;152257.78;;;9.21;100.00
33506;BME280;19843;51.040;13.782;2022-10-10T01:45:57;152241.03;;;9.15;100.00
33506;BME280;19843;51.040;13.782;2022-10-10T01:48:28;152278.38;;;9.29;100.00
33506;BME280;19843;51.040;13.782;2022-10-10T01:51:14;152226.94;;;9.09;100.00
33506;BME280;19843;51.040;13.782;2022-10-10T01:53:50;152224.34;;;9.08;100.00
33506;BME280;19843;51.040;13.782;2022-10-10T01:56:31;152270.63;;;9.26;100.00
33506;BME280;19843;51.040;13.782;2022-10-10T01:59:22;152288.66;;;9.33;100.00
33506;BME280;19843;51.040;13.782;2022-10-10T02:02:02;152260.34;;;9.22;100.00
33506;BME280;19843;51.040;13.782;2022-10-10T02:04:37;152248.78;;;9.18;100.00
33506;BME280;19843;51.040;13.782;2022-10-10T02:07:10;152247.50;;;9.17;100.00
33506;BME280;19843;51.040;13.782;2022-10-10T02:09:41;152268.06;;;9.25;100.00
33506;BME280;19843;51.040;13.782;2022-10-10T02:12:11;152241.03;;;9.15;100.00
33506;BME280;19843;51.040;13.782;2022-10-10T02:14:41;152296.34;;;9.37;100.00
33506;BME280;19843;51.040;13.782;2022-10-10T02:17:13;152286.09;;;9.32;100.00
33506;BME280;19843;51.040;13.782;2022-10-10T02:19:45;152275.78;;;9.28;100.00
33506;BME280;19843;51.040;13.782;2022-10-10T02:22:15;152275.78;;;9.28;100.00
33506;BME280;19843;51.040;13.782;2022-10-10T02:24:43;152275.78;;;9.28;100.00
33506;BME280;19843;51.040;13.782;2022-10-10T02:27:20;152279.69;;;9.30;100.00
33506;BME280;19843;51.040;13.782;2022-10-10T02:29:51;152282.19;;;9.31;100.00
33506;BME280;19843;51.040;13.782;2022-10-10T02:32:25;152224.34;;;9.08;100.00
33506;BME280;19843;51.040;13.782;2022-10-10T02:34:58;152259.06;;;9.22;100.00
33506;BME280;19843;51.040;13.782;2022-10-10T02:37:28;152275.78;;;9.28;100.00
33506;BME280;19843;51.040;13.782;2022-10-10T02:39:59;152293.81;;;9.36;100.00
33506;BME280;19843;51.040;13.782;2022-10-10T02:42:28;152273.22;;;9.27;100.00
33506;BME280;19843;51.040;13.782;2022-10-10T02:44:56;152309.22;;;9.42;100.00
33506;BME280;19843;51.040;13.782;2022-10-10T02:47:25;152325.97;;;9.48;100.00
33506;BME280;19843;51.040;13.782;2022-10-10T02:49:53;152350.41;;;9.58;100.00
33506;BME280;19843;51.040;13.782;2022-10-10T02:52:21;152350.41;;;9.58;100.00
33506;BME280;19843;51.040;13.782;2022-10-10T02:54:48;152345.28;;;9.56;100.00
33506;BME280;19843;51.040;13.782;2022-10-10T02:57:16;152350.41;;;9.58;100.00
33506;BME280;19843;51.040;13.782;2022-10-10T02:59:43;152363.25;;;9.63;100.00
33506;BME280;19843;51.040;13.782;2022-10-10T03:02:11;152355.56;;;9.60;100.00
33506;BME280;19843;51.040;13.782;2022-10-10T03:04:40;152361.97;;;9.62;100.00
33506;BME280;19843;51.040;13.782;2022-10-10T03:07:08;152369.72;;;9.65;100.00
33506;BME280;19843;51.040;13.782;2022-10-10T03:09:36;152383.88;;;9.71;100.00
33506;BME280;19843;51.040;13.782;2022-10-10T03:12:03;152376.13;;;9.68;100.00
33506;BME280;19843;51.040;13.782;2022-10-10T03:14:31;152381.31;;;9.70;100.00
33506;BME280;19843;51.040;13.782;2022-10-10T03:16:59;152373.59;;;9.67;100.00
33506;BME280;19843;51.040;13.782;2022-10-10T03:19:26;152368.44;;;9.65;100.00
33506;BME280;19843;51.040;13.782;2022-10-10T03:21:55;152380.00;;;9.69;100.00
33506;BME280;19843;51.040;13.782;2022-10-10T03:24:22;152383.88;;;9.71;100.00
33506;BME280;19843;51.040;13.782;2022-10-10T03:26:50;152373.59;;;9.67;100.00
33506;BME280;19843;51.040;13.782;2022-10-10T03:29:17;152396.75;;;9.76;100.00
33506;BME280;19843;51.040;13.782;2022-10-10T03:31:45;152391.56;;;9.74;100.00
33506;BME280;19843;51.040;13.782;2022-10-10T03:34:13;152391.56;;;9.74;100.00
33506;BME280;19843;51.040;13.782;2022-10-10T03:36:40;152371.00;;;9.66;100.00
33506;BME280;19843;51.040;13.782;2022-10-10T03:39:09;152373.59;;;9.67;100.00
33506;BME280;19843;51.040;13.782;2022-10-10T03:41:37;152395.47;;;9.75;100.00
33506;BME280;19843;51.040;13.782;2022-10-10T03:44:04;152392.88;;;9.74;100.00
33506;BME280;19843;51.040;13.782;2022-10-10T03:46:32;152385.16;;;9.71;100.00
33506;BME280;19843;51.040;13.782;2022-10-10T03:48:59;152383.88;;;9.71;100.00
33506;BME280;19843;51.040;13.782;2022-10-10T03:51:26;152363.25;;;9.63;100.00
33506;BME280;19843;51.040;13.782;2022-10-10T03:53:54;152350.41;;;9.58;100.00
33506;BME280;19843;51.040;13.782;2022-10-10T03:56:23;152376.13;;;9.68;100.00
33506;BME280;19843;51.040;13.782;2022-10-10T03:58:50;152355.56;;;9.60;100.00
33506;BME280;19843;51.040;13.782;2022-10-10T04:01:18;152352.97;;;9.59;100.00
33506;BME280;19843;51.040;13.782;2022-10-10T04:03:45;152355.56;;;9.60;100.00
33506;BME280;19843;51.040;13.782;2022-10-10T04:06:17;152351.69;;;9.58;100.00
33506;BME280;19843;51.040;13.782;2022-10-10T04:08:45;152360.72;;;9.62;100.00
33506;BME280;19843;51.040;13.782;2022-10-10T04:11:12;152358.16;;;9.61;100.00
33506;BME280;19843;51.040;13.782;2022-10-10T04:13:41;152347.88;;;9.57;100.00
33506;BME280;19843;51.040;13.782;2022-10-10T04:16:09;152369.72;;;9.65;100.00
33506;BME280;19843;51.040;13.782;2022-10-10T04:18:36;152336.25;;;9.52;100.00
33506;BME280;19843;51.040;13.782;2022-10-10T04:21:05;152327.25;;;9.49;100.00
33506;BME280;19843;51.040;13.782;2022-10-10T04:23:32;152327.25;;;9.49;100.00
33506;BME280;19843;51.040;13.782;2022-10-10T04:26:00;152344.00;;;9.55;100.00
33506;BME280;19843;51.040;13.782;2022-10-10T04:28:27;152329.84;;;9.50;100.00
33506;BME280;19843;51.040;13.782;2022-10-10T04:30:56;152345.28;;;9.56;100.00
33506;BME280;19843;51.040;13.782;2022-10-10T04:33:24;152356.84;;;9.60;100.00
33506;BME280;19843;51.040;13.782;2022-10-10T04:35:51;152364.56;;;9.63;100.00
33506;BME280;19843;51.040;13.782;2022-10-10T04:38:19;152351.69;;;9.58;100.00
33506;BME280;19843;51.040;13.782;2022-10-10T04:40:48;152378.72;;;9.69;100.00
33506;BME280;19843;51.040;13.782;2022-10-10T04:43:16;152371.00;;;9.66;100.00
33506;BME280;19843;51.040;13.782;2022-10-10T04:45:44;152356.84;;;9.60;100.00
33506;BME280;19843;51.040;13.782;2022-10-10T04:48:13;152372.31;;;9.66;100.00
33506;BME280;19843;51.040;13.782;2022-10-10T04:50:41;152376.13;;;9.68;100.00
33506;BME280;19843;51.040;13.782;2022-10-10T04:53:08;152369.72;;;9.65;100.00
33506;BME280;19843;51.040;13.782;2022-10-10T04:55:36;152391.56;;;9.74;100.00
33506;BME280;19843;51.040;13.782;2022-10-10T04:58:04;152360.72;;;9.62;100.00
33506;BME280;19843;51.040;13.782;2022-10-10T05:00:32;152381.31;;;9.70;100.00
33506;BME280;19843;51.040;13.782;2022-10-10T05:02:59;152385.16;;;9.71;100.00
33506;BME280;19843;51.040;13.782;2022-10-10T05:05:28;152389.00;;;9.73;100.00
33506;BME280;19843;51.040;13.782;2022-10-10T05:07:56;152369.72;;;9.65;100.00
33506;BME280;19843;51.040;13.782;2022-10-10T05:10:23;152363.25;;;9.63;100.00
33506;BME280;19843;51.040;13.782;2022-10-10T05:12:51;152376.13;;;9.68;100.00
33506;BME280;19843;51.040;13.782;2022-10-10T05:15:19;152345.28;;;9.56;100.00
33506;BME280;19843;51.040;13.782;2022-10-10T05:17:47;152360.72;;;9.62;100.00
33506;BME280;19843;51.040;13.782;2022-10-10T05:20:15;152322.09;;;9.47;100.00
33506;BME280;19843;51.040;13.782;2022-10-10T05:22:44;152354.28;;;9.59;100.00
33506;BME280;19843;51.040;13.782;2022-10-10T05:25:12;152358.16;;;9.61;100.00
33506;BME280;19843;51.040;13.782;2022-10-10T05:27:39;152360.72;;;9.62;100.00
33506;BME280;19843;51.040;13.782;2022-10-10T05:30:08;152345.28;;;9.56;100.00
33506;BME280;19843;51.040;13.782;2022-10-10T05:32:35;152376.13;;;9.68;100.00
33506;BME280;19843;51.040;13.782;2022-10-10T05:35:03;152368.44;;;9.65;100.00
33506;BME280;19843;51.040;13.782;2022-10-10T05:37:31;152368.44;;;9.65;100.00
33506;BME280;19843;51.040;13.782;2022-10-10T05:40:00;152345.28;;;9.56;100.00
33506;BME280;19843;51.040;13.782;2022-10-10T05:42:28;152365.84;;;9.64;100.00
33506;BME280;19843;51.040;13.782;2022-10-10T05:44:55;152360.72;;;9.62;100.00
33506;BME280;19843;51.040;13.782;2022-10-10T05:47:23;152378.72;;;9.69;100.00
33506;BME280;19843;51.040;13.782;2022-10-10T05:49:53;152403.16;;;9.79;100.00
33506;BME280;19843;51.040;13.782;2022-10-10T05:52:21;152389.00;;;9.73;100.00
33506;BME280;19843;51.040;13.782;2022-10-10T05:54:48;152391.56;;;9.74;100.00
33506;BME280;19843;51.040;13.782;2022-10-10T05:57:17;152385.16;;;9.71;100.00
33506;BME280;19843;51.040;13.782;2022-10-10T05:59:44;152392.88;;;9.74;100.00
33506;BME280;19843;51.040;13.782;2022-10-10T06:02:13;152383.88;;;9.71;100.00
33506;BME280;19843;51.040;13.782;2022-10-10T06:04:40;152396.75;;;9.76;100.00
33506;BME280;19843;51.040;13.782;2022-10-10T06:07:08;152416.03;;;9.84;100.00
33506;BME280;19843;51.040;13.782;2022-10-10T06:09:35;152431.47;;;9.90;100.00
33506;BME280;19843;51.040;13.782;2022-10-10T06:12:03;152435.34;;;9.91;100.00
33506;BME280;19843;51.040;13.782;2022-10-10T06:14:32;152436.63;;;9.92;100.00
33506;BME280;19843;51.040;13.782;2022-10-10T06:16:59;152466.25;;;10.03;100.00
33506;BME280;19843;51.040;13.782;2022-10-10T06:19:27;152522.97;;;10.26;100.00
33506;BME280;19843;51.040;13.782;2022-10-10T06:21:55;152547.41;;;10.35;100.00
33506;BME280;19843;51.040;13.782;2022-10-10T06:24:22;152566.69;;;10.43;100.00
33506;BME280;19843;51.040;13.782;2022-10-10T06:26:50;152574.44;;;10.46;100.00
33506;BME280;19843;51.040;13.782;2022-10-10T06:29:17;152622.06;;;10.65;100.00
33506;BME280;19843;51.040;13.782;2022-10-10T06:31:46;152636.25;;;10.70;100.00
33506;BME280;19843;51.040;13.782;2022-10-10T06:34:13;152662.00;;;10.80;100.00
33506;BME280;19843;51.040;13.782;2022-10-10T06:36:41;152672.28;;;10.84;100.00
33506;BME280;19843;51.040;13.782;2022-10-10T06:39:08;152691.63;;;10.92;100.00
33506;BME280;19843;51.040;13.782;2022-10-10T06:41:36;152709.69;;;10.99;100.00
33506;BME280;19843;51.040;13.782;2022-10-10T06:44:03;152722.56;;;11.04;100.00
33506;BME280;19843;51.040;13.782;2022-10-10T06:46:31;152734.16;;;11.09;100.00
33506;BME280;19843;51.040;13.782;2022-10-10T06:49:01;152735.44;;;11.09;100.00
33506;BME280;19843;51.040;13.782;2022-10-10T06:51:29;152753.44;;;11.16;100.00
33506;BME280;19843;51.040;13.782;2022-10-10T06:53:57;152759.91;;;11.19;100.00
33506;BME280;19843;51.040;13.782;2022-10-10T06:56:25;152788.25;;;11.30;100.00
33506;BME280;19843;51.040;13.782;2022-10-10T06:58:53;152785.69;;;11.29;100.00
33506;BME280;19843;51.040;13.782;2022-10-10T07:01:22;152806.28;;;11.37;100.00
33506;BME280;19843;51.040;13.782;2022-10-10T07:03:51;152814.03;;;11.40;100.00
33506;BME280;19843;51.040;13.782;2022-10-10T07:06:20;152844.97;;;11.52;100.00
33506;BME280;19843;51.040;13.782;2022-10-10T07:08:47;152853.97;;;11.56;100.00
33506;BME280;19843;51.040;13.782;2022-10-10T07:11:15;152852.69;;;11.55;100.00
33506;BME280;19843;51.040;13.782;2022-10-10T07:13:42;152861.69;;;11.59;100.00
33506;BME280;19843;51.040;13.782;2022-10-10T07:16:10;152878.47;;;11.65;100.00
33506;BME280;19843;51.040;13.782;2022-10-10T07:18:37;152886.22;;;11.68;100.00
33506;BME280;19843;51.040;13.782;2022-10-10T07:21:05;152912.03;;;11.78;100.00
33506;BME280;19843;51.040;13.782;2022-10-10T07:23:34;152924.94;;;11.83;100.00
33506;BME280;19843;51.040;13.782;2022-10-10T07:26:04;152924.94;;;11.83;100.00
33506;BME280;19843;51.040;13.782;2022-10-10T07:28:32;152945.53;;;11.92;100.00
33506;BME280;19843;51.040;13.782;2022-10-10T07:31:02;152950.72;;;11.94;100.00
33506;BME280;19843;51.040;13.782;2022-10-10T07:33:30;152985.50;;;12.07;100.00
33506;BME280;19843;51.040;13.782;2022-10-10T07:35:58;153015.16;;;12.19;100.00
33506;BME280;19843;51.040;13.782;2022-10-10T07:38:28;153030.63;;;12.25;100.00
33506;BME280;19843;51.040;13.782;2022-10-10T07:40:56;153070.63;;;12.41;100.00
33506;BME280;19843;51.040;13.782;2022-10-10T07:43:24;153071.91;;;12.41;100.00
33506;BME280;19843;51.040;13.782;2022-10-10T07:45:51;153091.22;;;12.49;100.00
33506;BME280;19843;51.040;13.782;2022-10-10T07:48:19;153115.72;;;12.58;100.00
33506;BME280;19843;51.040;13.782;2022-10-10T07:50:46;153127.38;;;12.63;100.00
33506;BME280;19843;51.040;13.782;2022-10-10T07:53:14;153147.97;;;12.71;100.00
33506;BME280;19843;51.040;13.782;2022-10-10T07:55:42;153193.16;;;12.89;100.00
33506;BME280;19843;51.040;13.782;2022-10-10T07:58:11;153184.09;;;12.85;100.00
33506;BME280;19843;51.040;13.782;2022-10-10T08:00:40;153200.88;;;12.92;100.00
33506;BME280;19843;51.040;13.782;2022-10-10T08:03:08;153230.56;;;13.03;100.00
33506;BME280;19843;51.040;13.782;2022-10-10T08:05:38;153226.66;;;13.02;100.00
33506;BME280;19843;51.040;13.782;2022-10-10T08:08:06;153257.69;;;13.14;100.00
33506;BME280;19843;51.040;13.782;2022-10-10T08:10:34;153286.09;;;13.25;100.00
33506;BME280;19843;51.040;13.782;2022-10-10T08:13:01;153291.22;;;13.27;100.00
33506;BME280;19843;51.040;13.782;2022-10-10T08:15:30;153304.19;;;13.32;100.00
33506;BME280;19843;51.040;13.782;2022-10-10T08:17:59;153345.44;;;13.48;100.00
33506;BME280;19843;51.040;13.782;2022-10-10T08:20:27;153351.91;;;13.51;100.00
33506;BME280;19843;51.040;13.782;2022-10-10T08:22:54;153364.81;;;13.56;100.00
33506;BME280;19843;51.040;13.782;2022-10-10T08:25:22;153335.13;;;13.44;100.00
33506;BME280;19843;51.040;13.782;2022-10-10T08:27:49;153359.63;;;13.54;100.00
33506;BME280;19843;51.040;13.782;2022-10-10T08:30:17;153381.59;;;13.63;100.00
33506;BME280;19843;51.040;13.782;2022-10-10T08:32:46;153402.22;;;13.71;100.00
33506;BME280;19843;51.040;13.782;2022-10-10T08:35:14;153417.72;;;13.77;100.00
33506;BME280;19843;51.040;13.782;2022-10-10T08:37:42;153448.72;;;13.89;100.00
33506;BME280;19843;51.040;13.782;2022-10-10T08:40:13;153422.91;;;13.79;100.00
33506;BME280;19843;51.040;13.782;2022-10-10T08:42:44;153442.25;;;13.86;100.00
33506;BME280;19843;51.040;13.782;2022-10-10T08:45:20;153488.75;;;14.05;100.00
33506;BME280;19843;51.040;13.782;2022-10-10T08:47:53;153566.22;;;14.35;100.00
33506;BME280;19843;51.040;13.782;2022-10-10T08:50:24;153585.66;;;14.43;100.00
33506;BME280;19843;51.040;13.782;2022-10-10T08:52:57;153588.19;;;14.44;100.00
33506;BME280;19843;51.040;13.782;2022-10-10T08:55:29;153614.09;;;14.54;100.00
33506;BME280;19843;51.040;13.782;2022-10-10T08:58:03;153606.31;;;14.51;100.00
33506;BME280;19843;51.040;13.782;2022-10-10T09:00:37;153593.38;;;14.46;100.00
33506;BME280;19843;51.040;13.782;2022-10-10T09:03:18;153583.06;;;14.42;100.00
33506;BME280;19843;51.040;13.782;2022-10-10T09:06:01;153616.63;;;14.55;100.00
33506;BME280;19843;51.040;13.782;2022-10-10T09:08:39;153611.50;;;14.53;100.00
33506;BME280;19843;51.040;13.782;2022-10-10T09:11:21;153632.13;;;14.61;100.00
33506;BME280;19843;51.040;13.782;2022-10-10T09:13:59;153634.72;;;14.62;100.00
33506;BME280;19843;51.040;13.782;2022-10-10T09:16:35;153663.16;;;14.73;100.00
33506;BME280;19843;51.040;13.782;2022-10-10T09:19:16;153692.88;;;14.85;100.00
33506;BME280;19843;51.040;13.782;2022-10-10T09:21:53;153732.94;;;15.00;100.00
33506;BME280;19843;51.040;13.782;2022-10-10T09:24:23;153775.56;;;15.17;100.00
33506;BME280;19843;51.040;13.782;2022-10-10T09:26:55;153802.72;;;15.28;100.00
33506;BME280;19843;51.040;13.782;2022-10-10T09:29:29;153841.47;;;15.43;100.00
33506;BME280;19843;51.040;13.782;2022-10-10T09:32:03;153875.13;;;15.56;100.00
33506;BME280;19843;51.040;13.782;2022-10-10T09:34:38;153959.16;;;15.89;100.00
33506;BME280;19843;51.040;13.782;2022-10-10T09:37:12;154014.78;;;16.11;100.00
33506;BME280;19843;51.040;13.782;2022-10-10T09:40:05;154119.53;;;16.52;100.00
33506;BME280;19843;51.040;13.782;2022-10-10T09:42:37;154159.66;;;16.67;100.00
33506;BME280;19843;51.040;13.782;2022-10-10T09:45:14;154201.06;;;16.83;100.00
33506;BME280;19843;51.040;13.782;2022-10-10T09:47:43;154237.28;;;16.98;100.00
33506;BME280;19843;51.040;13.782;2022-10-10T09:50:13;154139.00;;;16.59;100.00
33506;BME280;19843;51.040;13.782;2022-10-10T09:52:43;154175.19;;;16.73;100.00
33506;BME280;19843;51.040;13.782;2022-10-10T09:55:20;154164.88;;;16.69;100.00
33506;BME280;19843;51.040;13.782;2022-10-10T09:57:51;154139.00;;;16.59;100.00
33506;BME280;19843;51.040;13.782;2022-10-10T10:00:28;154164.88;;;16.69;100.00
33506;BME280;19843;51.040;13.782;2022-10-10T10:03:04;154247.69;;;17.02;100.00
33506;BME280;19843;51.040;13.782;2022-10-10T10:05:34;154198.47;;;16.82;100.00
33506;BME280;19843;51.040;13.782;2022-10-10T10:08:01;154215.31;;;16.89;100.00
33506;BME280;19843;51.040;13.782;2022-10-10T10:10:33;154243.78;;;17.00;100.00
33506;BME280;19843;51.040;13.782;2022-10-10T10:13:01;154212.72;;;16.88;100.00
33506;BME280;19843;51.040;13.782;2022-10-10T10:15:30;154216.63;;;16.89;100.00
33506;BME280;19843;51.040;13.782;2022-10-10T10:18:11;154268.38;;;17.10;100.00
33506;BME280;19843;51.040;13.782;2022-10-10T10:20:42;154224.34;;;16.93;100.00
33506;BME280;19843;51.040;13.782;2022-10-10T10:23:22;154214.00;;;16.88;100.00
33506;BME280;19843;51.040;13.782;2022-10-10T10:25:57;154162.28;;;16.68;100.00
33506;BME280;19843;51.040;13.782;2022-10-10T10:28:26;154111.78;;;16.48;100.00
33506;BME280;19843;51.040;13.782;2022-10-10T10:30:55;154131.16;;;16.56;100.00
33506;BME280;19843;51.040;13.782;2022-10-10T10:33:35;154070.38;;;16.32;100.00
33506;BME280;19843;51.040;13.782;2022-10-10T10:36:11;154131.16;;;16.56;100.00
33506;BME280;19843;51.040;13.782;2022-10-10T10:38:45;154094.94;;;16.42;100.00
33506;BME280;19843;51.040;13.782;2022-10-10T10:41:21;154087.22;;;16.39;100.00
33506;BME280;19843;51.040;13.782;2022-10-10T10:44:04;154180.41;;;16.75;100.00
33506;BME280;19843;51.040;13.782;2022-10-10T10:46:44;154144.13;;;16.61;100.00
33506;BME280;19843;51.040;13.782;2022-10-10T10:49:20;154097.53;;;16.43;100.00
33506;BME280;19843;51.040;13.782;2022-10-10T10:52:15;154144.13;;;16.61;100.00
33506;BME280;19843;51.040;13.782;2022-10-10T10:55:01;154159.66;;;16.67;100.00
33506;BME280;19843;51.040;13.782;2022-10-10T10:57:38;154168.72;;;16.71;100.00
33506;BME280;19843;51.040;13.782;2022-10-10T11:00:35;154163.56;;;16.69;100.00
33506;BME280;19843;51.040;13.782;2022-10-10T11:03:40;154132.47;;;16.57;100.00
33506;BME280;19843;51.040;13.782;2022-10-10T11:06:46;154168.72;;;16.71;100.00
33506;BME280;19843;51.040;13.782;2022-10-10T11:09:40;154135.06;;;16.58;100.00
33506;BME280;19843;51.040;13.782;2022-10-10T11:12:21;154142.84;;;16.61;100.00
33506;BME280;19843;51.040;13.782;2022-10-10T11:14:51;154107.88;;;16.47;100.00
33506;BME280;19843;51.040;13.782;2022-10-10T11:17:23;154078.13;;;16.35;100.00
33506;BME280;19843;51.040;13.782;2022-10-10T11:19:56;154131.16;;;16.56;100.00
33506;BME280;19843;51.040;13.782;2022-10-10T11:22:30;154131.16;;;16.56;100.00
33506;BME280;19843;51.040;13.782;2022-10-10T11:25:07;154114.38;;;16.50;100.00
33506;BME280;19843;51.040;13.782;2022-10-10T11:27:42;154167.47;;;16.70;100.00
33506;BME280;19843;51.040;13.782;2022-10-10T11:30:14;154162.28;;;16.68;100.00
33506;BME280;19843;51.040;13.782;2022-10-10T11:32:50;154123.41;;;16.53;100.00
33506;BME280;19843;51.040;13.782;2022-10-10T11:35:32;154144.13;;;16.61;100.00
33506;BME280;19843;51.040;13.782;2022-10-10T11:38:07;154182.94;;;16.76;100.00
33506;BME280;19843;51.040;13.782;2022-10-10T11:40:48;154182.94;;;16.76;100.00
33506;BME280;19843;51.040;13.782;2022-10-10T11:43:23;154194.63;;;16.81;100.00
33506;BME280;19843;51.040;13.782;2022-10-10T11:46:00;154199.78;;;16.83;100.00
33506;BME280;19843;51.040;13.782;2022-10-10T11:48:38;154223.06;;;16.92;100.00
33506;BME280;19843;51.040;13.782;2022-10-10T11:51:17;154265.75;;;17.09;100.00
33506;BME280;19843;51.040;13.782;2022-10-10T11:53:50;154255.41;;;17.05;100.00
33506;BME280;19843;51.040;13.782;2022-10-10T11:56:25;154214.00;;;16.88;100.00
33506;BME280;19843;51.040;13.782;2022-10-10T11:58:56;154216.63;;;16.89;100.00
33506;BME280;19843;51.040;13.782;2022-10-10T12:01:28;154270.97;;;17.11;100.00
33506;BME280;19843;51.040;13.782;2022-10-10T12:03:57;154261.91;;;17.07;100.00
33506;BME280;19843;51.040;13.782;2022-10-10T12:06:28;154247.69;;;17.02;100.00
33506;BME280;19843;51.040;13.782;2022-10-10T12:09:01;154239.88;;;16.99;100.00
33506;BME280;19843;51.040;13.782;2022-10-10T12:11:35;154239.88;;;16.99;100.00
33506;BME280;19843;51.040;13.782;2022-10-10T12:14:08;154237.28;;;16.98;100.00
33506;BME280;19843;51.040;13.782;2022-10-10T12:16:40;154250.22;;;17.03;100.00
33506;BME280;19843;51.040;13.782;2022-10-10T12:19:15;154251.53;;;17.03;100.00
33506;BME280;19843;51.040;13.782;2022-10-10T12:21:55;154269.66;;;17.10;100.00
33506;BME280;19843;51.040;13.782;2022-10-10T12:24:24;154349.91;;;17.42;100.00
33506;BME280;19843;51.040;13.782;2022-10-10T12:27:25;154415.97;;;17.67;100.00
33506;BME280;19843;51.040;13.782;2022-10-10T12:30:19;154403.03;;;17.62;100.00
33506;BME280;19843;51.040;13.782;2022-10-10T12:32:47;154409.53;;;17.65;100.00
33506;BME280;19843;51.040;13.782;2022-10-10T12:35:42;154438.00;;;17.76;100.00
33506;BME280;19843;51.040;13.782;2022-10-10T12:38:15;154470.34;;;17.89;100.00
33506;BME280;19843;51.040;13.782;2022-10-10T12:41:11;154509.19;;;18.04;100.00
33506;BME280;19843;51.040;13.782;2022-10-10T12:43:43;154513.09;;;18.05;100.00
33506;BME280;19843;51.040;13.782;2022-10-10T12:46:18;154522.13;;;18.09;100.00
33506;BME280;19843;51.040;13.782;2022-10-10T12:48:56;154535.09;;;18.14;100.00
33506;BME280;19843;51.040;13.782;2022-10-10T12:51:25;154519.59;;;18.08;100.00
33506;BME280;19843;51.040;13.782;2022-10-10T12:53:56;154505.34;;;18.02;100.00
33506;BME280;19843;51.040;13.782;2022-10-10T12:56:35;154425.06;;;17.71;100.00